Time;durP1;ratioP1;P1;durP2;ratioP2;P2;SDS_P1;SDS_P2;PMS_P1;PMS_P2;Temp;Humidity;BMP_temperature;BMP_pressure;BME280_temperature;BME280_humidity;BME280_pressure;Samples;Min_cycle;Max_cycle;Signal;HPM_P1;HPM_P2
2023/06/21 00:02:39;;;;;;;2.08;1.60;;;;;;;17.95;73.05;100218.09;4912874;29;20060;-46
2023/06/21 00:05:27;;;;;;;1.98;1.50;;;;;;;17.94;73.21;100216.50;4911979;29;20052;-45
2023/06/21 00:08:14;;;;;;;3.17;1.52;;;;;;;17.92;73.18;100213.31;4902400;29;20418;-44
2023/06/21 00:11:01;;;;;;;6.72;1.83;;;;;;;17.91;73.37;100211.72;4913046;29;20547;-45
2023/06/21 00:13:49;;;;;;;5.57;2.28;;;;;;;17.84;73.52;100208.94;4913151;29;20131;-45
2023/06/21 00:16:36;;;;;;;2.67;1.80;;;;;;;17.79;73.34;100220.59;4912671;29;20142;-45
2023/06/21 00:19:23;;;;;;;3.75;2.10;;;;;;;17.74;73.49;100213.38;4912600;29;20143;-45
2023/06/21 00:22:10;;;;;;;3.08;1.77;;;;;;;17.68;73.54;100217.03;4912154;29;20166;-45
2023/06/21 00:24:57;;;;;;;3.45;2.08;;;;;;;17.64;73.70;100211.44;4913335;29;20048;-45
2023/06/21 00:27:44;;;;;;;2.78;1.75;;;;;;;17.61;73.65;100215.03;4899896;29;20104;-45
2023/06/21 00:30:32;;;;;;;3.13;1.83;;;;;;;17.56;73.88;100213.47;4910175;29;20083;-45
2023/06/21 00:33:19;;;;;;;2.92;1.60;;;;;;;17.50;74.11;100206.63;4913391;29;20126;-45
2023/06/21 00:36:06;;;;;;;4.32;1.85;;;;;;;17.44;73.98;100211.06;4915020;29;20056;-46
2023/06/21 00:38:53;;;;;;;2.35;1.48;;;;;;;17.43;74.22;100209.47;4915451;29;20108;-45
2023/06/21 00:41:40;;;;;;;2.63;1.77;;;;;;;17.40;74.26;100215.88;4915717;29;20091;-46
2023/06/21 00:44:27;;;;;;;3.13;1.73;;;;;;;17.37;74.30;100213.06;4901776;29;20104;-44
2023/06/21 00:47:14;;;;;;;4.97;2.65;;;;;;;17.29;74.55;100212.28;4916125;29;20060;-45
2023/06/21 00:50:02;;;;;;;2.88;2.20;;;;;;;17.27;74.57;100211.91;4917206;29;20076;-45
2023/06/21 00:52:49;;;;;;;5.30;3.05;;;;;;;17.24;74.77;100212.72;4915792;29;20052;-45
2023/06/21 00:55:36;;;;;;;6.88;2.13;;;;;;;17.22;74.74;100219.91;4916260;29;20048;-44
2023/06/21 00:58:24;;;;;;;3.38;1.58;;;;;;;17.16;75.05;100208.31;4904455;29;20063;-44
2023/06/21 01:01:11;;;;;;;5.63;2.50;;;;;;;17.12;75.20;100215.94;4913971;29;20052;-46
2023/06/21 01:03:58;;;;;;;5.10;2.70;;;;;;;17.07;75.45;100221.94;4916509;29;20176;-46
2023/06/21 01:07:05;;;;;;;2.70;1.50;;;;;;;17.02;75.74;100222.34;4915144;29;20447;-45
2023/06/21 01:10:12;;;;;;;4.18;2.20;;;;;;;16.98;75.76;100215.94;4915331;29;20047;-45
2023/06/21 01:13:21;;;;;;;3.88;1.60;;;;;;;16.96;75.94;100229.53;4900447;29;20046;-46
2023/06/21 01:16:14;;;;;;;4.63;1.90;;;;;;;16.95;75.88;100236.31;4915437;29;20172;-46
2023/06/21 01:19:04;;;;;;;5.50;1.83;;;;;;;16.92;76.24;100242.72;4915999;29;20059;-45
2023/06/21 01:21:52;;;;;;;4.95;2.38;;;;;;;16.88;76.15;100244.72;4916094;29;20052;-45
2023/06/21 01:25:18;;;;;;;2.97;1.80;;;;;;;16.80;76.67;100245.94;4906651;29;20055;-44
2023/06/21 01:28:59;;;;;;;3.60;2.13;;;;;;;16.76;76.91;100245.13;4910562;29;20093;-44
2023/06/21 01:31:47;;;;;;;2.55;2.00;;;;;;;16.72;76.67;100244.31;4856698;29;20106;-46
2023/06/21 01:34:34;;;;;;;2.97;2.03;;;;;;;16.69;76.84;100242.31;4857588;29;20049;-44
2023/06/21 01:37:22;;;;;;;2.53;1.83;;;;;;;16.65;77.13;100247.94;4903161;29;20051;-44
2023/06/21 01:40:11;;;;;;;3.58;1.85;;;;;;;16.63;77.22;100255.09;4915621;29;20080;-44
2023/06/21 01:42:58;;;;;;;3.63;2.13;;;;;;;16.62;77.45;100247.91;4916059;29;20411;-44
2023/06/21 01:45:46;;;;;;;2.42;2.08;;;;;;;16.59;77.62;100251.50;4913849;29;20523;-46
2023/06/21 01:48:34;;;;;;;3.28;2.33;;;;;;;16.55;77.76;100253.50;4913302;29;20052;-45
2023/06/21 01:51:23;;;;;;;3.85;1.90;;;;;;;16.50;78.08;100257.44;4915227;29;20052;-45
2023/06/21 01:54:11;;;;;;;3.70;2.25;;;;;;;16.49;78.06;100257.84;4915245;29;20091;-47
2023/06/21 01:56:59;;;;;;;5.28;2.17;;;;;;;16.48;78.24;100264.63;4915568;29;20052;-46
2023/06/21 01:59:46;;;;;;;4.53;2.22;;;;;;;16.45;78.46;100266.22;4915500;29;20239;-44
2023/06/21 02:02:34;;;;;;;3.42;2.50;;;;;;;16.45;78.47;100255.84;4914870;29;20088;-44
2023/06/21 02:05:22;;;;;;;2.97;2.30;;;;;;;16.42;78.56;100262.22;4907304;29;20040;-45
2023/06/21 02:08:15;;;;;;;3.60;1.98;;;;;;;16.38;78.92;100261.44;4889147;29;20048;-44
2023/06/21 02:11:03;;;;;;;3.33;2.45;;;;;;;16.34;78.96;100266.19;4915172;29;20059;-45
2023/06/21 02:13:52;;;;;;;3.65;2.65;;;;;;;16.33;79.21;100263.81;4913314;29;20130;-46
2023/06/21 02:16:39;;;;;;;4.90;3.08;;;;;;;16.30;79.28;100264.59;4914350;29;20055;-45
2023/06/21 02:19:26;;;;;;;3.45;2.72;;;;;;;16.32;79.38;100274.19;4915228;29;20047;-44
2023/06/21 02:22:15;;;;;;;3.88;2.60;;;;;;;16.29;79.52;100269.38;4914446;29;20088;-45
2023/06/21 02:25:02;;;;;;;3.22;2.40;;;;;;;16.26;79.58;100272.97;4915210;29;20087;-44
2023/06/21 02:27:50;;;;;;;4.45;3.15;;;;;;;16.23;79.87;100279.31;4911664;29;20056;-46
2023/06/21 02:30:37;;;;;;;5.05;3.58;;;;;;;16.19;80.05;100281.31;4912843;29;20048;-44
2023/06/21 02:33:24;;;;;;;4.93;2.95;;;;;;;16.16;80.16;100281.31;4914595;29;20051;-45
2023/06/21 02:36:11;;;;;;;8.05;3.33;;;;;;;16.13;80.26;100280.09;4914557;29;20067;-44
2023/06/21 02:38:58;;;;;;;4.85;2.38;;;;;;;16.09;80.44;100293.25;4909778;29;20048;-44
2023/06/21 02:41:45;;;;;;;3.10;2.53;;;;;;;16.03;80.71;100278.06;4915308;29;20052;-45
2023/06/21 02:44:33;;;;;;;4.82;2.40;;;;;;;16.00;80.91;100281.66;4915592;29;20075;-45
2023/06/21 02:47:20;;;;;;;5.40;2.28;;;;;;;15.98;80.99;100291.63;4904714;29;20088;-47
2023/06/21 02:50:07;;;;;;;5.72;2.40;;;;;;;15.95;81.17;100282.03;4912952;29;20049;-45
2023/06/21 02:52:55;;;;;;;3.97;2.65;;;;;;;15.94;81.27;100294.38;4914725;29;20418;-44
2023/06/21 02:55:42;;;;;;;6.35;3.00;;;;;;;15.94;81.42;100290.81;4899461;29;20143;-45
2023/06/21 02:58:29;;;;;;;5.05;2.78;;;;;;;15.90;81.37;100290.78;4904068;29;20047;-44
2023/06/21 03:01:16;;;;;;;5.28;3.13;;;;;;;15.87;81.61;100290.75;4956341;23;20591;-45
2023/06/21 03:04:04;;;;;;;3.85;2.65;;;;;;;15.81;81.64;100293.13;4952804;29;20055;-44
2023/06/21 03:06:51;;;;;;;4.63;3.28;;;;;;;15.75;82.05;100289.13;4952090;29;20132;-44
2023/06/21 03:09:38;;;;;;;3.92;2.70;;;;;;;15.72;82.17;100301.06;4951753;29;20059;-47
2023/06/21 03:12:25;;;;;;;6.25;3.15;;;;;;;15.71;82.21;100299.44;4951024;28;20666;-50
2023/06/21 03:15:12;;;;;;;5.90;3.33;;;;;;;15.68;82.40;100300.22;4952669;29;20126;-44
2023/06/21 03:18:00;;;;;;;3.95;2.88;;;;;;;15.68;82.38;100300.22;4940518;29;20059;-48
2023/06/21 03:20:50;;;;;;;3.90;3.40;;;;;;;15.71;82.41;100310.63;4950536;29;20543;-46
2023/06/21 03:23:37;;;;;;;5.25;3.00;;;;;;;15.77;82.61;100309.06;4950595;29;20051;-46
2023/06/21 03:26:24;;;;;;;7.90;3.25;;;;;;;15.74;82.49;100312.63;4952436;29;20138;-45
2023/06/21 03:29:11;;;;;;;3.13;2.65;;;;;;;15.76;82.71;100313.03;4943025;29;20539;-45
2023/06/21 03:31:58;;;;;;;7.30;3.33;;;;;;;15.75;82.69;100312.22;4950726;29;20582;-45
2023/06/21 03:34:46;;;;;;;3.97;2.92;;;;;;;15.75;82.57;100317.03;4951557;29;20057;-45
2023/06/21 03:37:33;;;;;;;4.60;3.20;;;;;;;15.73;82.81;100316.59;4940182;29;20059;-45
2023/06/21 03:40:21;;;;;;;4.35;3.30;;;;;;;15.72;82.98;100318.63;4951827;29;20062;-46
2023/06/21 03:43:08;;;;;;;4.43;3.20;;;;;;;15.73;82.99;100324.97;4951310;29;20048;-45
2023/06/21 03:45:55;;;;;;;6.97;4.55;;;;;;;15.71;83.08;100327.38;4950636;29;20194;-47
2023/06/21 03:48:42;;;;;;;5.28;3.30;;;;;;;15.70;83.28;100325.78;4938600;29;20146;-46
2023/06/21 03:51:30;;;;;;;5.20;3.13;;;;;;;15.67;83.31;100332.91;4937207;29;20497;-46
2023/06/21 03:54:17;;;;;;;4.38;3.10;;;;;;;15.64;83.34;100333.72;4951814;29;20059;-45
2023/06/21 03:57:04;;;;;;;15.15;4.38;;;;;;;15.62;83.50;100324.91;4941746;29;20142;-45
2023/06/21 03:59:52;;;;;;;5.80;4.07;;;;;;;15.59;83.63;100336.06;4951702;28;20122;-47
2023/06/21 04:02:39;;;;;;;5.72;3.33;;;;;;;15.57;83.75;100332.84;4950537;28;20106;-47
2023/06/21 04:05:26;;;;;;;5.07;3.67;;;;;;;15.55;83.76;100344.41;4942479;29;20090;-45
2023/06/21 04:08:14;;;;;;;6.85;3.78;;;;;;;15.54;83.98;100342.03;4951304;29;20270;-48
2023/06/21 04:11:01;;;;;;;8.27;4.18;;;;;;;15.52;84.07;100342.38;4953397;28;20039;-47
2023/06/21 04:13:48;;;;;;;6.90;4.20;;;;;;;15.51;84.07;100345.59;4954641;29;20051;-46
2023/06/21 04:16:37;;;;;;;5.40;4.03;;;;;;;15.48;84.28;100357.50;4953891;29;20082;-46
2023/06/21 04:19:24;;;;;;;3.88;3.40;;;;;;;15.45;84.27;100361.03;4955240;29;20062;-47
2023/06/21 04:22:11;;;;;;;8.43;3.83;;;;;;;15.40;84.57;100365.00;4954721;29;20130;-46
2023/06/21 04:24:58;;;;;;;7.60;4.15;;;;;;;15.40;84.61;100358.63;4955530;29;20521;-45
2023/06/21 04:27:45;;;;;;;8.52;3.90;;;;;;;15.40;84.80;100358.63;4941298;29;20388;-45
2023/06/21 04:30:34;;;;;;;10.55;4.03;;;;;;;15.41;84.99;100368.59;4952822;28;20051;-45
2023/06/21 04:33:22;;;;;;;6.28;3.58;;;;;;;15.41;85.15;100374.19;4955533;29;20051;-45
2023/06/21 04:36:09;;;;;;;8.95;3.75;;;;;;;15.46;85.12;100382.22;4954339;29;20567;-46
2023/06/21 04:38:56;;;;;;;5.35;3.60;;;;;;;15.53;85.11;100383.06;4953399;29;20051;-46
2023/06/21 04:41:48;;;;;;;5.05;3.85;;;;;;;15.59;85.18;100381.53;4954037;29;20059;-45
2023/06/21 04:44:35;;;;;;;4.55;3.65;;;;;;;15.65;85.23;100382.75;4954802;29;20134;-45
2023/06/21 04:47:24;;;;;;;4.78;3.63;;;;;;;15.71;85.15;100388.75;4944648;29;20066;-45
2023/06/21 04:50:11;;;;;;;5.75;3.67;;;;;;;15.72;85.13;100393.97;4954239;29;20050;-45
2023/06/21 04:53:18;;;;;;;4.93;3.45;;;;;;;15.72;85.09;100395.97;4952322;28;20047;-46
2023/06/21 04:56:05;;;;;;;8.20;3.90;;;;;;;15.69;85.21;100396.72;4954228;28;20090;-45
2023/06/21 04:58:52;;;;;;;6.25;4.03;;;;;;;15.65;85.42;100401.47;4954726;29;20051;-45
2023/06/21 05:01:39;;;;;;;4.57;3.67;;;;;;;15.63;85.57;100403.84;4942682;29;20094;-45
2023/06/21 05:04:26;;;;;;;7.22;3.97;;;;;;;15.60;85.89;100407.41;4954087;29;20138;-47
2023/06/21 05:07:14;;;;;;;6.05;3.25;;;;;;;15.57;85.86;100410.97;4954214;29;20091;-45
2023/06/21 05:10:01;;;;;;;8.80;3.95;;;;;;;15.61;85.93;100409.03;4954458;29;20059;-46
2023/06/21 05:12:48;;;;;;;8.55;4.35;;;;;;;15.64;86.02;100411.06;4927559;29;20130;-45
2023/06/21 05:15:35;;;;;;;6.78;3.65;;;;;;;15.64;86.02;100414.66;4952896;29;20510;-46
2023/06/21 05:18:22;;;;;;;6.50;3.72;;;;;;;15.65;86.06;100418.22;4954047;29;20138;-46
2023/06/21 05:21:09;;;;;;;5.22;3.30;;;;;;;15.69;86.05;100424.63;4954531;28;20164;-45
2023/06/21 05:23:57;;;;;;;4.55;3.15;;;;;;;15.67;86.06;100418.66;4953091;29;20062;-46
2023/06/21 05:26:44;;;;;;;5.00;3.30;;;;;;;15.66;86.25;100431.00;4953363;28;20055;-45
2023/06/21 05:29:31;;;;;;;4.28;3.38;;;;;;;15.71;86.43;100431.44;4947421;28;20062;-46
2023/06/21 05:32:19;;;;;;;8.15;3.92;;;;;;;15.81;86.33;100429.91;4953072;28;20554;-45
2023/06/21 05:35:07;;;;;;;3.80;3.40;;;;;;;15.84;86.15;100437.50;4952542;28;20047;-45
2023/06/21 05:37:54;;;;;;;5.18;3.35;;;;;;;15.84;86.25;100431.91;4953294;29;20138;-46
2023/06/21 05:40:41;;;;;;;8.05;3.65;;;;;;;15.85;86.44;100427.94;4954330;29;20055;-46
2023/06/21 05:43:28;;;;;;;6.05;3.50;;;;;;;15.88;86.27;100437.53;4953378;29;20133;-46
2023/06/21 05:46:16;;;;;;;4.88;4.07;;;;;;;15.93;86.49;100431.59;4952981;28;20126;-48
2023/06/21 05:49:03;;;;;;;6.57;4.57;;;;;;;16.00;86.55;100431.63;4953157;29;20058;-45
2023/06/21 05:51:50;;;;;;;14.48;4.63;;;;;;;16.04;86.37;100441.66;4952910;29;20087;-46
2023/06/21 05:54:41;;;;;;;5.57;3.28;;;;;;;16.07;86.25;100442.84;4952547;28;20094;-46
2023/06/21 05:57:29;;;;;;;6.00;4.20;;;;;;;16.10;86.37;100433.69;4953307;29;20408;-45
2023/06/21 06:00:17;;;;;;;9.15;4.30;;;;;;;16.16;86.37;100432.94;4943845;29;21182;-46
2023/06/21 06:03:04;;;;;;;5.40;3.22;;;;;;;16.23;86.43;100432.97;4950117;29;20134;-46
2023/06/21 06:05:53;;;;;;;6.00;4.00;;;;;;;16.27;86.22;100431.00;4951887;28;20047;-45
2023/06/21 06:08:40;;;;;;;8.73;3.53;;;;;;;16.24;86.17;100431.78;4953353;29;20138;-45
2023/06/21 06:11:27;;;;;;;6.20;3.40;;;;;;;16.29;86.34;100439.78;4941116;29;20086;-45
2023/06/21 06:14:14;;;;;;;4.55;3.45;;;;;;;16.34;86.26;100445.00;4953371;29;20490;-46
2023/06/21 06:17:01;;;;;;;6.30;4.00;;;;;;;16.34;86.14;100446.97;4953342;28;20489;-45
2023/06/21 06:19:48;;;;;;;6.20;4.00;;;;;;;16.32;86.17;100458.56;4950997;28;20114;-47
2023/06/21 06:22:35;;;;;;;8.65;3.30;;;;;;;16.32;86.10;100458.56;4952195;29;20109;-45
2023/06/21 06:25:22;;;;;;;5.90;3.40;;;;;;;16.34;86.23;100464.56;4951362;29;20051;-45
2023/06/21 06:28:10;;;;;;;5.63;3.05;;;;;;;16.40;86.21;100454.63;4946982;29;20051;-45
2023/06/21 06:30:57;;;;;;;5.30;3.65;;;;;;;16.42;86.06;100469.00;4940038;29;20043;-46
2023/06/21 06:33:44;;;;;;;5.28;3.30;;;;;;;16.43;86.10;100476.19;4937237;29;20520;-45
2023/06/21 06:36:31;;;;;;;5.85;3.90;;;;;;;16.42;85.98;100477.38;4944765;29;20065;-45
2023/06/21 06:39:18;;;;;;;6.38;2.85;;;;;;;16.43;85.97;100478.19;4942571;29;20457;-46
2023/06/21 06:42:06;;;;;;;6.75;3.63;;;;;;;16.47;86.12;100467.81;4952491;28;20040;-47
2023/06/21 06:44:53;;;;;;;9.15;3.40;;;;;;;16.53;86.01;100477.47;4952701;29;20126;-47
2023/06/21 06:47:40;;;;;;;6.85;3.30;;;;;;;16.59;85.99;100478.69;4950917;29;20051;-47
2023/06/21 06:50:28;;;;;;;8.63;3.90;;;;;;;16.68;86.01;100483.94;4951109;29;20501;-48
2023/06/21 06:53:15;;;;;;;7.35;3.85;;;;;;;16.72;85.87;100485.53;4951214;29;20051;-45
2023/06/21 06:56:02;;;;;;;6.22;3.30;;;;;;;16.78;85.83;100494.34;4951337;29;20293;-45
2023/06/21 06:58:49;;;;;;;8.02;3.75;;;;;;;16.78;85.67;100497.16;4951079;29;20473;-45
2023/06/21 07:01:37;;;;;;;6.97;3.60;;;;;;;16.79;85.85;100504.31;4936758;29;20501;-47
2023/06/21 07:04:25;;;;;;;6.97;3.70;;;;;;;16.82;85.83;100503.53;4951877;29;20035;-49
2023/06/21 07:07:13;;;;;;;9.30;3.67;;;;;;;16.90;85.99;100510.78;4952026;28;20051;-45
2023/06/21 07:10:01;;;;;;;6.07;3.55;;;;;;;17.02;86.20;100507.63;4951298;29;20054;-45
2023/06/21 07:12:48;;;;;;;6.75;3.45;;;;;;;17.15;86.44;100511.66;4952281;29;20386;-45
2023/06/21 07:15:35;;;;;;;7.10;3.83;;;;;;;17.31;86.55;100520.50;4952110;29;20054;-45
2023/06/21 07:18:22;;;;;;;5.40;3.45;;;;;;;17.42;86.38;100521.31;4951817;29;20055;-45
2023/06/21 07:21:10;;;;;;;4.65;3.03;;;;;;;17.55;87.24;100525.38;4940133;29;20126;-46
2023/06/21 07:23:57;;;;;;;6.30;3.30;;;;;;;17.77;87.55;100525.38;4952037;29;20066;-45
2023/06/21 07:26:44;;;;;;;4.93;3.40;;;;;;;17.97;88.26;100532.22;4950251;29;20047;-46
2023/06/21 07:29:31;;;;;;;4.15;3.30;;;;;;;18.21;88.74;100528.59;4948733;29;20058;-45
2023/06/21 07:32:18;;;;;;;6.35;3.40;;;;;;;18.47;89.56;100539.41;4951169;29;20176;-47
2023/06/21 07:35:05;;;;;;;6.05;3.53;;;;;;;18.78;90.08;100546.13;4951485;29;20142;-48
2023/06/21 07:37:52;;;;;;;4.22;3.42;;;;;;;18.99;89.08;100545.22;4950579;29;20516;-47
2023/06/21 07:40:39;;;;;;;6.10;3.75;;;;;;;19.05;87.92;100543.63;4951335;29;20748;-46
2023/06/21 07:43:26;;;;;;;5.50;3.42;;;;;;;19.21;87.76;100547.56;4951302;29;20051;-45
2023/06/21 07:46:14;;;;;;;4.53;3.50;;;;;;;19.50;86.89;100559.47;4950519;29;20058;-46
2023/06/21 07:49:02;;;;;;;7.75;3.72;;;;;;;19.83;86.50;100555.25;4951400;29;20051;-48
2023/06/21 07:51:50;;;;;;;6.63;3.45;;;;;;;20.43;84.93;100566.00;4950812;28;20043;-46
2023/06/21 07:54:38;;;;;;;5.90;3.60;;;;;;;20.82;81.64;100563.56;4950709;29;20078;-47
2023/06/21 07:57:25;;;;;;;6.50;4.40;;;;;;;20.93;78.76;100578.31;4952153;29;20082;-47
2023/06/21 08:00:13;;;;;;;5.13;3.58;;;;;;;21.01;76.62;100577.03;4952003;29;20066;-48
2023/06/21 08:03:01;;;;;;;4.75;3.47;;;;;;;21.11;75.86;100590.19;4949995;28;20055;-47
2023/06/21 08:05:49;;;;;;;3.97;3.25;;;;;;;21.37;74.01;100585.03;4951603;29;20671;-46
2023/06/21 08:08:36;;;;;;;5.30;3.28;;;;;;;21.41;72.82;100591.44;4950728;29;20039;-47
2023/06/21 08:11:23;;;;;;;5.63;3.20;;;;;;;21.58;71.91;100584.75;4950638;29;20133;-47
2023/06/21 08:14:10;;;;;;;5.53;3.15;;;;;;;21.74;70.96;100599.00;4951878;29;20126;-45
2023/06/21 08:16:57;;;;;;;4.60;3.45;;;;;;;22.32;69.95;100603.34;4951731;29;20114;-45
2023/06/21 08:19:44;;;;;;;9.13;3.70;;;;;;;23.09;68.41;100618.09;4951082;29;20269;-46
2023/06/21 08:22:32;;;;;;;3.60;2.83;;;;;;;23.45;66.38;100627.50;4951564;29;20453;-45
2023/06/21 08:25:19;;;;;;;3.22;2.92;;;;;;;23.77;65.33;100626.81;4936993;29;20514;-45
2023/06/21 08:28:06;;;;;;;3.78;3.17;;;;;;;24.42;63.46;100624.84;4949353;29;20047;-46
2023/06/21 08:30:53;;;;;;;7.22;3.63;;;;;;;24.91;62.07;100633.34;4939372;29;20161;-47
2023/06/21 08:33:40;;;;;;;4.82;3.63;;;;;;;24.85;60.83;100627.41;4950849;28;20133;-46
2023/06/21 08:36:28;;;;;;;6.22;3.65;;;;;;;24.59;59.77;100640.63;4948746;29;20071;-46
2023/06/21 08:39:15;;;;;;;4.13;3.20;;;;;;;24.09;59.77;100634.59;4940874;29;20051;-46
2023/06/21 08:42:02;;;;;;;5.63;3.20;;;;;;;24.07;59.91;100631.34;4951486;29;20194;-47
2023/06/21 08:44:51;;;;;;;3.75;3.35;;;;;;;23.72;59.73;100635.81;4951218;29;20082;-45
2023/06/21 08:47:38;;;;;;;8.18;3.63;;;;;;;23.29;60.02;100630.22;4951723;29;20066;-47
2023/06/21 08:50:26;;;;;;;7.57;4.05;;;;;;;22.81;60.32;100635.59;4950855;29;20057;-45
2023/06/21 08:53:22;;;;;;;5.70;3.75;;;;;;;22.49;61.39;100629.69;4950184;29;20087;-47
2023/06/21 08:56:11;;;;;;;5.35;3.60;;;;;;;22.33;61.46;100628.34;4949912;28;20130;-49
2023/06/21 08:59:19;;;;;;;7.28;2.97;;;;;;;22.19;61.91;100637.00;4953165;29;20047;-46
2023/06/21 09:02:20;;;;;;;16.25;3.95;;;;;;;21.94;61.92;100642.25;4954270;28;20070;-46
2023/06/21 09:05:12;;;;;;;4.00;3.07;;;;;;;22.14;62.15;100633.88;4944174;29;20043;-46
2023/06/21 09:08:02;;;;;;;5.68;3.88;;;;;;;23.35;61.29;100653.13;4953413;29;20078;-46
2023/06/21 09:10:52;;;;;;;5.60;2.92;;;;;;;24.44;58.84;100642.19;4952393;28;20924;-45
2023/06/21 09:13:40;;;;;;;2.60;2.40;;;;;;;24.58;57.99;100647.50;4953569;29;20111;-46
2023/06/21 09:16:27;;;;;;;31.55;4.57;;;;;;;25.11;56.78;100645.31;4954135;29;20051;-46
2023/06/21 09:19:15;;;;;;;3.72;2.80;;;;;;;25.05;56.24;100647.09;4953201;29;20576;-48
2023/06/21 09:22:03;;;;;;;6.15;4.38;;;;;;;25.44;55.07;100647.56;4954057;28;20055;-46
2023/06/21 09:24:51;;;;;;;4.80;2.42;;;;;;;25.62;54.45;100649.94;4954593;29;20067;-45
2023/06/21 09:27:39;;;;;;;3.90;3.13;;;;;;;26.03;54.02;100655.53;4942617;28;20059;-46
2023/06/21 09:30:26;;;;;;;5.15;3.35;;;;;;;26.33;53.21;100653.41;4953158;29;20065;-46
2023/06/21 09:33:16;;;;;;;5.10;3.30;;;;;;;26.24;53.14;100664.69;4953370;29;20142;-46
2023/06/21 09:36:05;;;;;;;5.80;3.35;;;;;;;25.66;53.11;100649.81;4953599;28;20539;-45
2023/06/21 09:39:06;;;;;;;4.30;2.63;;;;;;;25.04;54.29;100646.31;4954257;29;20062;-43
2023/06/21 09:41:54;;;;;;;5.00;3.08;;;;;;;24.39;54.26;100665.34;4953827;28;20079;-43
2023/06/21 09:44:41;;;;;;;4.53;3.58;;;;;;;23.91;55.12;100670.91;4952585;29;20047;-44
2023/06/21 09:47:31;;;;;;;5.22;3.28;;;;;;;23.91;55.43;100666.06;4953523;29;20051;-44
2023/06/21 09:50:18;;;;;;;4.93;3.13;;;;;;;23.90;54.67;100666.50;4953411;29;20059;-42
2023/06/21 09:53:10;;;;;;;4.97;2.97;;;;;;;23.39;55.18;100662.34;4953298;28;20062;-44
2023/06/21 09:55:59;;;;;;;4.50;3.72;;;;;;;23.12;55.91;100670.91;4952446;28;20059;-46
2023/06/21 09:58:49;;;;;;;4.00;3.60;;;;;;;23.49;55.54;100670.59;4953211;29;20552;-45
2023/06/21 10:01:38;;;;;;;6.13;3.17;;;;;;;24.35;54.61;100681.66;4952101;28;20170;-46
2023/06/21 10:04:25;;;;;;;3.72;2.53;;;;;;;24.87;53.74;100689.25;4952734;29;20129;-46
2023/06/21 10:07:14;;;;;;;4.47;3.22;;;;;;;24.95;52.90;100682.16;4953341;29;20498;-46
2023/06/21 10:10:08;;;;;;;4.88;3.30;;;;;;;24.83;53.17;100684.47;4938497;29;20051;-47
2023/06/21 10:12:55;;;;;;;5.03;3.08;;;;;;;24.59;53.56;100691.56;4953557;29;20155;-45
2023/06/21 10:15:47;;;;;;;4.95;2.70;;;;;;;24.49;53.51;100692.59;4952730;29;20047;-46
2023/06/21 10:18:35;;;;;;;5.97;3.90;;;;;;;24.88;52.77;100685.19;4952640;29;20408;-45
2023/06/21 10:21:28;;;;;;;3.85;3.20;;;;;;;25.25;52.57;100691.06;4953034;29;20145;-43
2023/06/21 10:24:16;;;;;;;3.85;3.30;;;;;;;25.93;51.39;100693.56;4952375;29;20103;-43
2023/06/21 10:27:06;;;;;;;4.93;3.15;;;;;;;26.56;50.27;100695.63;4942283;29;20122;-43
2023/06/21 10:29:57;;;;;;;4.85;2.90;;;;;;;26.16;49.81;100691.69;4952352;29;20445;-43
2023/06/21 10:32:44;;;;;;;4.47;3.03;;;;;;;25.79;50.54;100691.13;4952407;28;20051;-44
2023/06/21 10:35:36;;;;;;;3.38;2.97;;;;;;;26.06;50.28;100696.41;4951786;29;20178;-45
2023/06/21 10:38:29;;;;;;;;;;;;;;;26.30;50.46;100699.75;4951928;29;20130;-45
2023/06/21 10:41:16;;;;;;;3.33;3.03;;;;;;;25.83;50.36;100697.50;4952633;29;19930;-43
2023/06/21 10:44:05;;;;;;;5.68;3.30;;;;;;;25.58;49.84;100691.75;4952177;29;20413;-43
2023/06/21 10:46:52;;;;;;;3.95;2.67;;;;;;;25.07;50.26;100689.97;4952544;29;20465;-43
2023/06/21 10:49:40;;;;;;;3.45;2.67;;;;;;;24.67;51.09;100700.66;4950178;29;20047;-43
2023/06/21 10:52:30;;;;;;;5.13;2.80;;;;;;;24.38;50.96;100706.25;4951643;29;20073;-43
2023/06/21 10:55:17;;;;;;;5.15;3.47;;;;;;;23.94;51.38;100692.66;4952164;29;20158;-44
2023/06/21 10:58:05;;;;;;;4.95;4.18;;;;;;;23.66;52.03;100698.94;4952090;29;20090;-43
2023/06/21 11:00:52;;;;;;;12.57;5.03;;;;;;;23.75;52.47;100701.97;4951212;29;20164;-48
2023/06/21 11:03:39;;;;;;;7.03;3.30;;;;;;;23.82;53.00;100696.97;4942600;29;20055;-43
2023/06/21 11:06:29;;;;;;;5.93;3.58;;;;;;;24.12;52.71;100690.25;4952551;29;20178;-45
2023/06/21 11:09:24;;;;;;;6.10;3.42;;;;;;;23.99;52.25;100694.97;4937804;29;20057;-45
2023/06/21 11:12:12;;;;;;;5.32;3.05;;;;;;;23.92;52.41;100697.97;4937780;29;20066;-45
2023/06/21 11:14:59;;;;;;;4.03;3.15;;;;;;;24.09;52.61;100693.97;4927224;29;20584;-45
2023/06/21 11:18:05;;;;;;;3.78;2.58;;;;;;;24.28;52.50;100701.59;4951495;28;20047;-45
2023/06/21 11:20:57;;;;;;;3.83;2.95;;;;;;;24.35;52.68;100701.44;4950568;28;20058;-45
2023/06/21 11:23:49;;;;;;;3.10;2.80;;;;;;;24.17;53.03;100698.25;4952062;29;20055;-47
2023/06/21 11:27:00;;;;;;;5.22;2.80;;;;;;;23.82;53.15;100701.81;4947011;28;20055;-46
2023/06/21 11:29:59;;;;;;;2.88;2.08;;;;;;;23.69;53.85;100700.88;4931181;29;20035;-45
2023/06/21 11:32:56;;;;;;;3.63;2.53;;;;;;;23.74;54.41;100703.22;4951236;29;20047;-46
2023/06/21 11:35:51;;;;;;;3.92;2.58;;;;;;;23.89;54.31;100707.31;4937323;29;20520;-43
2023/06/21 11:38:59;;;;;;;3.53;2.10;;;;;;;23.97;54.27;100708.75;4951166;29;20039;-46
2023/06/21 11:41:47;;;;;;;2.45;2.25;;;;;;;24.01;54.29;100709.50;4950856;29;20050;-46
2023/06/21 11:44:36;;;;;;;2.35;1.90;;;;;;;24.09;54.04;100705.28;4951631;29;20125;-46
2023/06/21 11:47:24;;;;;;;3.83;2.22;;;;;;;24.12;54.28;100715.72;4951691;29;20142;-47
2023/06/21 11:50:15;;;;;;;4.95;2.08;;;;;;;24.21;53.57;100713.09;4951379;29;20055;-46
2023/06/21 11:53:13;;;;;;;4.97;2.47;;;;;;;24.15;53.72;100715.63;4951547;29;20454;-46
2023/06/21 11:56:01;;;;;;;4.05;2.63;;;;;;;23.93;53.64;100711.69;4951257;29;20138;-45
2023/06/21 11:58:52;;;;;;;2.88;2.28;;;;;;;23.57;53.91;100717.25;4950876;29;20113;-45
2023/06/21 12:01:39;;;;;;;4.78;2.90;;;;;;;23.21;54.24;100724.81;4939388;29;20063;-46
2023/06/21 12:04:27;;;;;;;3.65;2.25;;;;;;;22.97;54.79;100720.41;4952022;29;20055;-45
2023/06/21 12:07:15;;;;;;;2.85;2.42;;;;;;;22.83;54.86;100715.81;4952232;29;20137;-46
2023/06/21 12:10:02;;;;;;;3.78;2.50;;;;;;;22.78;55.22;100723.97;4951563;28;20462;-47
2023/06/21 12:12:49;;;;;;;4.90;2.72;;;;;;;23.03;55.34;100721.53;4950957;28;20098;-50
2023/06/21 12:15:36;;;;;;;3.17;2.30;;;;;;;23.20;55.35;100733.69;4950887;28;20083;-46
2023/06/21 12:18:27;;;;;;;2.83;2.42;;;;;;;23.26;55.22;100729.97;4950401;29;20199;-46
2023/06/21 12:21:14;;;;;;;4.38;2.35;;;;;;;23.56;55.05;100729.03;4951495;29;20732;-46
2023/06/21 12:24:01;;;;;;;6.70;2.08;;;;;;;23.75;54.88;100730.25;4936459;29;20150;-46
2023/06/21 12:26:50;;;;;;;2.53;2.10;;;;;;;23.84;54.44;100728.44;4945612;29;20067;-47
2023/06/21 12:29:37;;;;;;;5.25;2.83;;;;;;;23.91;54.37;100741.59;4951802;29;20094;-48
2023/06/21 12:32:24;;;;;;;3.78;2.22;;;;;;;24.15;54.40;100737.47;4953440;28;20552;-47
2023/06/21 12:35:11;;;;;;;2.60;2.08;;;;;;;24.35;54.03;100735.41;4955002;29;20134;-46
2023/06/21 12:38:18;;;;;;;2.60;2.13;;;;;;;24.40;53.71;100729.22;4954657;29;20114;-45
2023/06/21 12:41:05;;;;;;;2.95;2.47;;;;;;;24.44;54.08;100729.94;4944944;29;20045;-47
2023/06/21 12:43:54;;;;;;;4.30;2.55;;;;;;;24.41;53.95;100739.28;4953607;28;20141;-46
2023/06/21 12:46:41;;;;;;;2.65;2.22;;;;;;;24.09;53.69;100736.41;4953741;28;20081;-45
2023/06/21 12:49:29;;;;;;;3.55;2.83;;;;;;;23.77;54.13;100739.09;4955056;28;20090;-49
2023/06/21 12:52:25;;;;;;;4.63;3.42;;;;;;;23.56;54.40;100738.28;4943886;29;20058;-47
2023/06/21 12:55:15;;;;;;;2.92;2.47;;;;;;;23.74;54.78;100734.31;4954353;28;20063;-45
2023/06/21 12:58:02;;;;;;;5.03;2.78;;;;;;;23.70;54.45;100739.22;4954835;29;20137;-46
2023/06/21 13:00:49;;;;;;;5.10;2.70;;;;;;;23.78;54.94;100733.00;4953365;29;20095;-45
2023/06/21 13:03:37;;;;;;;5.72;2.78;;;;;;;23.93;54.66;100737.13;4954666;28;20202;-46
2023/06/21 13:06:27;;;;;;;5.82;2.88;;;;;;;23.75;54.85;100736.69;4954635;29;20047;-44